createdAt,value
2018-07-13T00:00:12.191Z,4.828032
2018-07-13T00:00:24.632Z,8.04672
2018-07-13T00:00:37.074Z,6.437376
2018-07-13T00:00:49.498Z,11.265408
2018-07-13T00:01:01.917Z,11.265408
2018-07-13T00:01:14.331Z,8.04672
2018-07-13T00:01:26.757Z,6.437376
2018-07-13T00:01:39.159Z,6.437376
2018-07-13T00:01:51.724Z,3.218688
2018-07-13T00:02:04.132Z,6.437376
2018-07-13T00:02:16.526Z,6.437376
2018-07-13T00:02:28.956Z,6.437376
2018-07-13T00:02:41.372Z,3.218688
2018-07-13T00:02:53.807Z,8.04672
2018-07-13T00:03:06.243Z,6.437376
2018-07-13T00:03:18.659Z,6.437376
2018-07-13T00:03:31.085Z,6.437376
2018-07-13T00:03:43.501Z,8.04672
2018-07-13T00:03:55.903Z,3.218688
2018-07-13T00:04:08.373Z,3.218688
2018-07-13T00:04:20.791Z,3.218688
2018-07-13T00:04:33.216Z,4.828032
2018-07-13T00:04:45.619Z,4.828032
2018-07-13T00:04:58.015Z,6.437376
2018-07-13T00:05:10.438Z,8.04672
2018-07-13T00:05:22.849Z,8.04672
2018-07-13T00:05:35.263Z,9.656064
2018-07-13T00:05:47.671Z,6.437376
2018-07-13T00:06:00.109Z,1.609344
2018-07-13T00:06:12.691Z,1.609344
2018-07-13T00:06:25.104Z,3.218688
2018-07-13T00:06:37.527Z,6.437376
2018-07-13T00:06:49.948Z,6.437376
2018-07-13T00:07:02.374Z,3.218688
2018-07-13T00:07:14.792Z,4.828032
2018-07-13T00:07:27.192Z,6.437376
2018-07-13T00:07:39.650Z,3.218688
2018-07-13T00:07:52.071Z,1.609344
2018-07-13T00:08:04.473Z,3.218688
2018-07-13T00:08:16.890Z,3.218688
2018-07-13T00:08:29.314Z,6.437376
2018-07-13T00:08:41.722Z,6.437376
2018-07-13T00:08:54.121Z,4.828032
2018-07-13T00:09:06.552Z,3.218688
2018-07-13T00:09:19.132Z,3.218688
2018-07-13T00:09:31.539Z,1.609344
2018-07-13T00:09:43.940Z,3.218688
2018-07-13T00:09:56.354Z,3.218688
2018-07-13T00:10:08.757Z,4.828032
2018-07-13T00:10:21.209Z,6.437376
2018-07-13T00:10:33.606Z,8.04672
2018-07-13T00:10:46.021Z,3.218688
2018-07-13T00:10:58.418Z,3.218688
2018-07-13T00:11:10.917Z,3.218688
2018-07-13T00:11:23.369Z,3.218688
2018-07-13T00:11:35.773Z,1.609344
2018-07-13T00:11:48.170Z,3.218688
2018-07-13T00:12:00.570Z,3.218688
2018-07-13T00:12:12.983Z,1.609344
2018-07-13T00:12:25.401Z,1.609344
2018-07-13T00:12:37.816Z,3.218688
2018-07-13T00:12:50.211Z,3.218688
2018-07-13T00:13:02.744Z,3.218688
2018-07-13T00:13:15.151Z,4.828032
2018-07-13T00:13:27.570Z,1.609344
2018-07-13T00:13:39.972Z,1.609344
2018-07-13T00:13:52.362Z,1.609344
2018-07-13T00:14:04.750Z,1.609344
2018-07-13T00:14:17.146Z,3.218688
2018-07-13T00:14:29.558Z,8.04672
2018-07-13T00:14:41.970Z,8.04672
2018-07-13T00:14:54.372Z,8.04672
2018-07-13T00:15:06.835Z,6.437376
2018-07-13T00:15:19.399Z,6.437376
2018-07-13T00:15:31.796Z,8.04672
2018-07-13T00:15:44.195Z,6.437376
2018-07-13T00:15:56.580Z,4.828032
2018-07-13T00:16:09.032Z,3.218688
2018-07-13T00:16:21.431Z,8.04672
2018-07-13T00:16:33.847Z,6.437376
2018-07-13T00:16:46.260Z,3.218688
2018-07-13T00:16:58.652Z,6.437376
2018-07-13T00:17:11.056Z,3.218688
2018-07-13T00:17:23.475Z,9.656064
2018-07-13T00:17:35.878Z,4.828032
2018-07-13T00:17:48.289Z,1.609344
2018-07-13T00:18:00.706Z,9.656064
2018-07-13T00:18:13.150Z,11.265408
2018-07-13T00:18:25.536Z,4.828032
2018-07-13T00:18:37.939Z,3.218688
2018-07-13T00:18:50.345Z,6.437376
2018-07-13T00:19:02.746Z,6.437376
2018-07-13T00:19:15.141Z,6.437376
2018-07-13T00:19:27.565Z,3.218688
2018-07-13T00:19:39.973Z,3.218688
2018-07-13T00:19:52.376Z,3.218688
2018-07-13T00:20:04.777Z,4.828032
2018-07-13T00:20:17.240Z,3.218688
2018-07-13T00:20:29.642Z,4.828032
2018-07-13T00:20:42.040Z,8.04672
2018-07-13T00:20:54.424Z,9.656064
2018-07-13T00:21:06.813Z,9.656064
2018-07-13T00:21:19.241Z,6.437376
2018-07-13T00:21:31.643Z,6.437376
2018-07-13T00:21:44.042Z,4.828032
2018-07-13T00:21:56.455Z,6.437376
2018-07-13T00:22:08.874Z,6.437376
2018-07-13T00:22:21.297Z,1.609344
2018-07-13T00:22:33.705Z,3.218688
2018-07-13T00:22:46.104Z,8.04672
2018-07-13T00:22:58.526Z,6.437376
2018-07-13T00:23:11.075Z,3.218688
2018-07-13T00:23:23.469Z,1.609344
2018-07-13T00:23:35.892Z,1.609344
2018-07-13T00:23:48.301Z,3.218688
2018-07-13T00:24:00.695Z,8.04672
2018-07-13T00:24:13.119Z,6.437376
2018-07-13T00:24:25.532Z,8.04672
2018-07-13T00:24:37.933Z,6.437376
2018-07-13T00:24:50.328Z,8.04672
2018-07-13T00:25:02.752Z,4.828032
2018-07-13T00:25:15.168Z,3.218688
2018-07-13T00:25:27.594Z,3.218688
2018-07-13T00:25:40.010Z,3.218688
2018-07-13T00:25:52.426Z,3.218688
2018-07-13T00:26:04.817Z,1.609344
2018-07-13T00:26:17.250Z,3.218688
2018-07-13T00:26:29.657Z,3.218688
2018-07-13T00:26:42.080Z,3.218688
2018-07-13T00:26:54.488Z,1.609344
2018-07-13T00:27:06.909Z,1.609344
2018-07-13T00:27:19.335Z,3.218688
2018-07-13T00:27:31.762Z,3.218688
2018-07-13T00:27:44.179Z,3.218688
2018-07-13T00:27:56.588Z,3.218688
2018-07-13T00:28:09.196Z,6.437376
2018-07-13T00:28:21.624Z,4.828032
2018-07-13T00:28:34.011Z,8.04672
2018-07-13T00:28:46.453Z,6.437376
2018-07-13T00:28:58.862Z,4.828032
2018-07-13T00:29:11.257Z,6.437376
2018-07-13T00:29:23.657Z,3.218688
2018-07-13T00:29:36.058Z,8.04672
2018-07-13T00:29:48.480Z,6.437376
2018-07-13T00:30:00.888Z,1.609344
2018-07-13T00:30:13.314Z,3.218688
2018-07-13T00:30:25.784Z,3.218688
2018-07-13T00:30:38.200Z,1.609344
2018-07-13T00:30:50.597Z,3.218688
2018-07-13T00:31:03.021Z,4.828032
2018-07-13T00:31:15.439Z,3.218688
2018-07-13T00:31:27.861Z,6.437376
2018-07-13T00:31:40.266Z,6.437376
2018-07-13T00:31:52.692Z,8.04672
2018-07-13T00:32:05.132Z,8.04672
2018-07-13T00:32:17.526Z,6.437376
2018-07-13T00:32:29.928Z,6.437376
2018-07-13T00:32:42.330Z,3.218688
2018-07-13T00:32:54.728Z,3.218688
2018-07-13T00:33:07.144Z,8.04672
2018-07-13T00:33:19.564Z,6.437376
2018-07-13T00:33:31.971Z,4.828032
2018-07-13T00:33:44.518Z,6.437376
2018-07-13T00:33:56.908Z,4.828032
2018-07-13T00:34:09.357Z,3.218688
2018-07-13T00:34:21.769Z,1.609344
2018-07-13T00:34:34.172Z,3.218688
2018-07-13T00:34:46.578Z,3.218688
2018-07-13T00:34:58.990Z,1.609344
2018-07-13T00:35:11.402Z,3.218688
2018-07-13T00:35:23.799Z,1.609344
2018-07-13T00:35:36.244Z,3.218688
2018-07-13T00:35:48.637Z,1.609344
2018-07-13T00:36:01.025Z,1.609344
2018-07-13T00:36:13.425Z,1.609344
2018-07-13T00:36:25.816Z,0
2018-07-13T00:36:38.220Z,0
2018-07-13T00:36:50.634Z,1.609344
2018-07-13T00:37:03.033Z,3.218688
2018-07-13T00:37:15.428Z,1.609344
2018-07-13T00:37:27.832Z,3.218688
2018-07-13T00:37:40.458Z,1.609344
2018-07-13T00:37:52.859Z,1.609344
2018-07-13T00:38:05.320Z,1.609344
2018-07-13T00:38:17.730Z,1.609344
2018-07-13T00:38:30.185Z,1.609344
2018-07-13T00:38:42.586Z,1.609344
2018-07-13T00:38:55.211Z,3.218688
2018-07-13T00:39:07.639Z,3.218688
2018-07-13T00:39:20.045Z,1.609344
2018-07-13T00:39:32.437Z,1.609344
2018-07-13T00:39:44.864Z,1.609344
2018-07-13T00:39:57.401Z,4.828032
2018-07-13T00:40:09.828Z,4.828032
2018-07-13T00:40:22.233Z,6.437376
2018-07-13T00:40:34.647Z,6.437376
2018-07-13T00:40:47.048Z,3.218688
2018-07-13T00:40:59.468Z,3.218688
2018-07-13T00:41:11.898Z,1.609344
2018-07-13T00:41:24.314Z,1.609344
2018-07-13T00:41:36.731Z,1.609344
2018-07-13T00:41:49.150Z,1.609344
2018-07-13T00:42:01.559Z,1.609344
2018-07-13T00:42:13.949Z,3.218688
2018-07-13T00:42:26.368Z,1.609344
2018-07-13T00:42:38.810Z,1.609344
2018-07-13T00:42:51.216Z,1.609344
2018-07-13T00:43:03.689Z,1.609344
2018-07-13T00:43:16.103Z,1.609344
2018-07-13T00:43:28.508Z,3.218688
2018-07-13T00:43:40.902Z,3.218688
2018-07-13T00:43:53.322Z,4.828032
2018-07-13T00:44:05.846Z,4.828032
2018-07-13T00:44:18.256Z,6.437376
2018-07-13T00:44:30.697Z,3.218688
2018-07-13T00:44:43.097Z,6.437376
2018-07-13T00:44:55.513Z,1.609344
2018-07-13T00:45:07.944Z,4.828032
2018-07-13T00:45:20.345Z,3.218688
2018-07-13T00:45:32.755Z,3.218688
2018-07-13T00:45:45.178Z,3.218688
2018-07-13T00:45:57.581Z,1.609344
2018-07-13T00:46:09.992Z,1.609344
2018-07-13T00:46:22.389Z,1.609344
2018-07-13T00:46:34.796Z,3.218688
2018-07-13T00:46:47.198Z,1.609344
2018-07-13T00:46:59.609Z,3.218688
2018-07-13T00:47:12.032Z,1.609344
2018-07-13T00:47:24.446Z,4.828032
2018-07-13T00:47:36.891Z,3.218688
2018-07-13T00:47:49.311Z,3.218688
2018-07-13T00:48:01.741Z,6.437376
2018-07-13T00:48:14.174Z,3.218688
2018-07-13T00:48:26.594Z,1.609344
2018-07-13T00:48:39.018Z,6.437376
2018-07-13T00:48:51.579Z,6.437376
2018-07-13T00:49:03.992Z,3.218688
2018-07-13T00:49:16.428Z,3.218688
2018-07-13T00:49:28.828Z,6.437376
2018-07-13T00:49:41.239Z,6.437376
2018-07-13T00:49:53.635Z,3.218688
2018-07-13T00:50:06.053Z,1.609344
2018-07-13T00:50:18.566Z,3.218688
2018-07-13T00:50:30.963Z,8.04672
2018-07-13T00:50:43.392Z,3.218688
2018-07-13T00:50:55.856Z,3.218688
2018-07-13T00:51:08.507Z,3.218688
2018-07-13T00:51:20.913Z,6.437376
2018-07-13T00:51:33.315Z,4.828032
2018-07-13T00:51:45.719Z,4.828032
2018-07-13T00:51:58.118Z,6.437376
2018-07-13T00:52:10.523Z,3.218688
2018-07-13T00:52:22.943Z,3.218688
2018-07-13T00:52:35.365Z,0
2018-07-13T00:52:47.782Z,1.609344
2018-07-13T00:53:00.185Z,1.609344
2018-07-13T00:53:12.643Z,1.609344
2018-07-13T00:53:25.056Z,4.828032
2018-07-13T00:53:37.462Z,6.437376
2018-07-13T00:53:49.868Z,3.218688
2018-07-13T00:54:02.277Z,4.828032
2018-07-13T00:54:14.681Z,1.609344
2018-07-13T00:54:27.100Z,4.828032
2018-07-13T00:54:39.581Z,6.437376
2018-07-13T00:54:51.982Z,6.437376
2018-07-13T00:55:04.409Z,8.04672
2018-07-13T00:55:16.812Z,6.437376
2018-07-13T00:55:29.214Z,3.218688
2018-07-13T00:55:41.730Z,6.437376
2018-07-13T00:55:54.252Z,1.609344
2018-07-13T00:56:06.651Z,3.218688
2018-07-13T00:56:19.059Z,1.609344
2018-07-13T00:56:31.465Z,3.218688
2018-07-13T00:56:43.908Z,1.609344
2018-07-13T00:56:56.324Z,3.218688
2018-07-13T00:57:08.769Z,3.218688
2018-07-13T00:57:21.169Z,1.609344
2018-07-13T00:57:33.560Z,1.609344
2018-07-13T00:57:46.011Z,0
2018-07-13T00:57:58.423Z,3.218688
2018-07-13T00:58:10.823Z,6.437376
2018-07-13T00:58:23.246Z,3.218688
2018-07-13T00:58:35.642Z,3.218688
2018-07-13T00:58:48.042Z,1.609344
2018-07-13T00:59:00.446Z,3.218688
2018-07-13T00:59:12.853Z,1.609344
2018-07-13T00:59:25.269Z,3.218688
2018-07-13T00:59:37.795Z,4.828032
2018-07-13T00:59:50.363Z,1.609344
2018-07-13T01:00:02.908Z,1.609344
2018-07-13T01:00:15.448Z,1.609344
2018-07-13T01:00:27.887Z,3.218688
2018-07-13T01:00:40.354Z,4.828032
2018-07-13T01:00:52.818Z,8.04672
2018-07-13T01:01:05.238Z,6.437376
2018-07-13T01:01:17.653Z,1.609344
2018-07-13T01:01:30.085Z,1.609344
2018-07-13T01:01:42.599Z,3.218688
2018-07-13T01:01:55.096Z,3.218688
2018-07-13T01:02:07.541Z,3.218688
2018-07-13T01:02:19.964Z,1.609344
2018-07-13T01:02:32.386Z,6.437376
2018-07-13T01:02:44.802Z,8.04672
2018-07-13T01:02:57.215Z,6.437376
2018-07-13T01:03:09.704Z,4.828032
2018-07-13T01:03:22.125Z,8.04672
2018-07-13T01:03:34.530Z,6.437376
2018-07-13T01:03:47.007Z,3.218688
2018-07-13T01:03:59.416Z,3.218688
2018-07-13T01:04:11.831Z,3.218688
2018-07-13T01:04:24.224Z,4.828032
2018-07-13T01:04:36.658Z,4.828032
2018-07-13T01:04:49.130Z,3.218688
2018-07-13T01:05:01.544Z,4.828032
2018-07-13T01:05:13.991Z,4.828032
2018-07-13T01:05:26.421Z,3.218688
2018-07-13T01:05:38.835Z,1.609344
2018-07-13T01:05:51.250Z,1.609344
2018-07-13T01:06:03.717Z,4.828032
2018-07-13T01:06:16.118Z,4.828032
2018-07-13T01:06:28.560Z,3.218688
2018-07-13T01:06:40.997Z,6.437376
2018-07-13T01:06:53.389Z,6.437376
2018-07-13T01:07:05.812Z,3.218688
2018-07-13T01:07:18.241Z,3.218688
2018-07-13T01:07:30.704Z,6.437376
2018-07-13T01:07:43.184Z,9.656064
2018-07-13T01:07:55.601Z,4.828032
2018-07-13T01:08:08.007Z,9.656064
2018-07-13T01:08:20.409Z,6.437376
2018-07-13T01:08:32.804Z,8.04672
2018-07-13T01:08:45.204Z,6.437376
2018-07-13T01:08:57.652Z,8.04672
2018-07-13T01:09:10.092Z,6.437376
2018-07-13T01:09:22.760Z,6.437376
2018-07-13T01:09:35.196Z,3.218688
2018-07-13T01:09:47.604Z,3.218688
2018-07-13T01:10:00.010Z,1.609344
2018-07-13T01:10:12.429Z,3.218688
2018-07-13T01:10:24.837Z,1.609344
2018-07-13T01:10:37.232Z,1.609344
2018-07-13T01:10:49.637Z,1.609344
2018-07-13T01:11:02.250Z,0
2018-07-13T01:11:14.652Z,1.609344
2018-07-13T01:11:27.066Z,1.609344
2018-07-13T01:11:39.469Z,1.609344
2018-07-13T01:11:51.890Z,1.609344
2018-07-13T01:12:04.304Z,1.609344
2018-07-13T01:12:16.709Z,1.609344
2018-07-13T01:12:29.115Z,1.609344
2018-07-13T01:12:41.507Z,1.609344
2018-07-13T01:12:53.918Z,3.218688
2018-07-13T01:13:06.419Z,1.609344
2018-07-13T01:13:18.829Z,1.609344
2018-07-13T01:13:31.237Z,1.609344
2018-07-13T01:13:43.663Z,1.609344
2018-07-13T01:13:56.092Z,1.609344
2018-07-13T01:14:08.501Z,1.609344
2018-07-13T01:14:20.916Z,1.609344
2018-07-13T01:14:33.348Z,1.609344
2018-07-13T01:14:45.779Z,1.609344
2018-07-13T01:14:58.226Z,1.609344
2018-07-13T01:15:10.656Z,1.609344
2018-07-13T01:15:23.069Z,1.609344
2018-07-13T01:15:35.469Z,1.609344
2018-07-13T01:15:47.912Z,1.609344
2018-07-13T01:16:00.319Z,1.609344
2018-07-13T01:16:12.760Z,1.609344
2018-07-13T01:16:25.184Z,1.609344
2018-07-13T01:16:37.619Z,1.609344
2018-07-13T01:16:50.050Z,1.609344
2018-07-13T01:17:02.517Z,1.609344
2018-07-13T01:17:14.944Z,0
2018-07-13T01:17:27.353Z,1.609344
2018-07-13T01:17:39.789Z,0
2018-07-13T01:17:52.218Z,1.609344
2018-07-13T01:18:04.664Z,0
2018-07-13T01:18:17.064Z,1.609344
2018-07-13T01:18:29.476Z,1.609344
2018-07-13T01:18:41.883Z,1.609344
2018-07-13T01:18:54.281Z,1.609344
2018-07-13T01:19:06.694Z,1.609344
2018-07-13T01:19:19.076Z,3.218688
2018-07-13T01:19:31.472Z,1.609344
2018-07-13T01:19:43.884Z,3.218688
2018-07-13T01:19:56.311Z,3.218688
2018-07-13T01:20:08.764Z,3.218688
2018-07-13T01:20:21.159Z,1.609344
2018-07-13T01:20:33.581Z,1.609344
2018-07-13T01:20:46.155Z,1.609344
2018-07-13T01:20:58.555Z,1.609344
2018-07-13T01:21:10.962Z,0
2018-07-13T01:21:23.405Z,1.609344
2018-07-13T01:21:35.799Z,1.609344
2018-07-13T01:21:48.209Z,1.609344
2018-07-13T01:22:00.604Z,0
2018-07-13T01:22:12.995Z,0
2018-07-13T01:22:25.394Z,1.609344
2018-07-13T01:22:37.805Z,3.218688
2018-07-13T01:22:50.205Z,0
2018-07-13T01:23:02.630Z,0
2018-07-13T01:23:15.017Z,0
2018-07-13T01:23:27.428Z,0
2018-07-13T01:23:39.837Z,0
2018-07-13T01:23:52.246Z,0
2018-07-13T01:24:04.644Z,0
2018-07-13T01:24:17.032Z,0
2018-07-13T01:24:29.449Z,0
2018-07-13T01:24:41.849Z,0
2018-07-13T01:24:54.252Z,0
2018-07-13T01:25:06.658Z,0
2018-07-13T01:25:19.065Z,0
2018-07-13T01:25:31.489Z,0
2018-07-13T01:25:43.927Z,0
2018-07-13T01:25:56.324Z,1.609344
2018-07-13T01:26:08.726Z,1.609344
2018-07-13T01:26:21.152Z,3.218688
2018-07-13T01:26:33.803Z,3.218688
2018-07-13T01:26:46.239Z,1.609344
2018-07-13T01:26:58.697Z,0
2018-07-13T01:27:11.140Z,1.609344
2018-07-13T01:27:23.552Z,1.609344
2018-07-13T01:27:35.968Z,0
2018-07-13T01:27:48.368Z,0
2018-07-13T01:28:00.773Z,0
2018-07-13T01:28:13.277Z,0
2018-07-13T01:28:25.686Z,3.218688
2018-07-13T01:28:38.104Z,3.218688
2018-07-13T01:28:50.517Z,3.218688
2018-07-13T01:29:02.922Z,1.609344
2018-07-13T01:29:15.340Z,1.609344
2018-07-13T01:29:27.752Z,1.609344
2018-07-13T01:29:40.173Z,1.609344
2018-07-13T01:29:52.576Z,1.609344
2018-07-13T01:30:05.050Z,1.609344
2018-07-13T01:30:17.456Z,3.218688
2018-07-13T01:30:29.874Z,8.04672
2018-07-13T01:30:42.300Z,6.437376
2018-07-13T01:30:54.740Z,6.437376
2018-07-13T01:31:07.148Z,8.04672
2018-07-13T01:31:19.588Z,4.828032
2018-07-13T01:31:31.996Z,6.437376
2018-07-13T01:31:44.392Z,3.218688
2018-07-13T01:31:56.827Z,9.656064
2018-07-13T01:32:09.229Z,6.437376
2018-07-13T01:32:21.635Z,6.437376
2018-07-13T01:32:34.045Z,4.828032
2018-07-13T01:32:46.436Z,4.828032
2018-07-13T01:32:58.836Z,8.04672
2018-07-13T01:33:11.239Z,8.04672
2018-07-13T01:33:23.671Z,9.656064
2018-07-13T01:33:36.083Z,6.437376
2018-07-13T01:33:48.589Z,6.437376
2018-07-13T01:34:01.003Z,3.218688
2018-07-13T01:34:13.437Z,3.218688
2018-07-13T01:34:25.839Z,1.609344
2018-07-13T01:34:38.301Z,0
2018-07-13T01:34:50.687Z,0
2018-07-13T01:35:03.114Z,1.609344
2018-07-13T01:35:15.536Z,1.609344
2018-07-13T01:35:27.923Z,4.828032
2018-07-13T01:35:40.340Z,6.437376
2018-07-13T01:35:52.755Z,3.218688
2018-07-13T01:36:05.155Z,3.218688
2018-07-13T01:36:17.556Z,3.218688
2018-07-13T01:36:29.954Z,1.609344
2018-07-13T01:36:42.380Z,1.609344
2018-07-13T01:36:54.797Z,3.218688
2018-07-13T01:37:07.214Z,0
2018-07-13T01:37:19.704Z,0
2018-07-13T01:37:32.108Z,1.609344
2018-07-13T01:37:44.898Z,1.609344
2018-07-13T01:37:57.307Z,1.609344
2018-07-13T01:38:09.719Z,3.218688
2018-07-13T01:38:22.201Z,3.218688
2018-07-13T01:38:34.642Z,1.609344
2018-07-13T01:38:47.058Z,3.218688
2018-07-13T01:38:59.602Z,1.609344
2018-07-13T01:39:12.023Z,3.218688
2018-07-13T01:39:24.429Z,1.609344
2018-07-13T01:39:36.838Z,1.609344
2018-07-13T01:39:49.269Z,1.609344
2018-07-13T01:40:01.699Z,3.218688
2018-07-13T01:40:14.108Z,1.609344
2018-07-13T01:40:26.514Z,1.609344
2018-07-13T01:40:38.925Z,1.609344
2018-07-13T01:40:51.343Z,1.609344
2018-07-13T01:41:03.766Z,0
2018-07-13T01:41:16.163Z,0
2018-07-13T01:41:28.585Z,0
2018-07-13T01:41:40.995Z,0
2018-07-13T01:41:53.393Z,1.609344
2018-07-13T01:42:05.846Z,1.609344
2018-07-13T01:42:18.257Z,3.218688
2018-07-13T01:42:30.664Z,1.609344
2018-07-13T01:42:43.066Z,3.218688
2018-07-13T01:42:55.486Z,4.828032
2018-07-13T01:43:07.875Z,8.04672
2018-07-13T01:43:20.285Z,6.437376
2018-07-13T01:43:32.705Z,3.218688
2018-07-13T01:43:45.129Z,4.828032
2018-07-13T01:43:57.557Z,3.218688
2018-07-13T01:44:10.031Z,3.218688
2018-07-13T01:44:22.434Z,6.437376
2018-07-13T01:44:34.829Z,3.218688
2018-07-13T01:44:47.246Z,1.609344
2018-07-13T01:44:59.646Z,1.609344
2018-07-13T01:45:12.079Z,1.609344
2018-07-13T01:45:24.536Z,1.609344
2018-07-13T01:45:36.962Z,1.609344
2018-07-13T01:45:49.373Z,1.609344
2018-07-13T01:46:01.803Z,1.609344
2018-07-13T01:46:14.220Z,1.609344
2018-07-13T01:46:26.687Z,3.218688
2018-07-13T01:46:39.118Z,1.609344
2018-07-13T01:46:51.545Z,3.218688
2018-07-13T01:47:03.987Z,3.218688
2018-07-13T01:47:16.398Z,1.609344
2018-07-13T01:47:28.858Z,3.218688
2018-07-13T01:47:41.282Z,1.609344
2018-07-13T01:47:53.678Z,3.218688
2018-07-13T01:48:06.147Z,3.218688
2018-07-13T01:48:18.593Z,3.218688
2018-07-13T01:48:30.992Z,3.218688
2018-07-13T01:48:43.542Z,3.218688
2018-07-13T01:48:56.000Z,1.609344
2018-07-13T01:49:08.411Z,1.609344
2018-07-13T01:49:20.823Z,1.609344
2018-07-13T01:49:33.246Z,3.218688
2018-07-13T01:49:45.664Z,4.828032
2018-07-13T01:49:58.123Z,4.828032
2018-07-13T01:50:10.548Z,3.218688
2018-07-13T01:50:22.954Z,3.218688
2018-07-13T01:50:35.377Z,3.218688
2018-07-13T01:50:47.785Z,3.218688
2018-07-13T01:51:00.199Z,4.828032
2018-07-13T01:51:12.814Z,3.218688
2018-07-13T01:51:25.222Z,1.609344
2018-07-13T01:51:37.624Z,3.218688
2018-07-13T01:51:50.050Z,3.218688
2018-07-13T01:52:02.550Z,1.609344
2018-07-13T01:52:14.956Z,3.218688
2018-07-13T01:52:27.378Z,3.218688
2018-07-13T01:52:39.791Z,1.609344
2018-07-13T01:52:52.173Z,3.218688
2018-07-13T01:53:04.604Z,3.218688
2018-07-13T01:53:17.082Z,4.828032
2018-07-13T01:53:29.502Z,3.218688
2018-07-13T01:53:41.934Z,6.437376
2018-07-13T01:53:54.350Z,3.218688
2018-07-13T01:54:06.783Z,1.609344
2018-07-13T01:54:19.210Z,1.609344
2018-07-13T01:54:31.627Z,1.609344
2018-07-13T01:54:44.100Z,4.828032
2018-07-13T01:54:56.547Z,3.218688
2018-07-13T01:55:08.969Z,1.609344
2018-07-13T01:55:21.373Z,3.218688
2018-07-13T01:55:34.113Z,4.828032
2018-07-13T01:55:47.825Z,3.218688
2018-07-13T01:56:00.267Z,3.218688
2018-07-13T01:56:12.734Z,1.609344
2018-07-13T01:56:25.153Z,1.609344
2018-07-13T01:56:37.547Z,6.437376
2018-07-13T01:56:49.966Z,8.04672
2018-07-13T01:57:02.367Z,6.437376
2018-07-13T01:57:14.765Z,3.218688
2018-07-13T01:57:27.165Z,8.04672
2018-07-13T01:57:39.583Z,3.218688
2018-07-13T01:57:52.163Z,3.218688
2018-07-13T01:58:04.593Z,6.437376
2018-07-13T01:58:17.007Z,6.437376
2018-07-13T01:58:29.445Z,3.218688
2018-07-13T01:58:41.842Z,6.437376
2018-07-13T01:58:54.247Z,4.828032
2018-07-13T01:59:06.698Z,3.218688
2018-07-13T01:59:19.109Z,1.609344
2018-07-13T01:59:31.532Z,6.437376
2018-07-13T01:59:43.956Z,1.609344
2018-07-13T01:59:56.517Z,3.218688
2018-07-13T02:00:09.285Z,1.609344
2018-07-13T02:00:21.722Z,1.609344
2018-07-13T02:00:34.151Z,0
2018-07-13T02:00:46.602Z,3.218688
2018-07-13T02:00:59.047Z,1.609344
2018-07-13T02:01:11.489Z,0
2018-07-13T02:01:24.023Z,1.609344
2018-07-13T02:01:36.445Z,0
2018-07-13T02:01:49.025Z,0
2018-07-13T02:02:01.451Z,3.218688
2018-07-13T02:02:13.868Z,6.437376
2018-07-13T02:02:26.273Z,3.218688
2018-07-13T02:02:38.672Z,6.437376
2018-07-13T02:02:51.093Z,3.218688
2018-07-13T02:03:03.500Z,3.218688
2018-07-13T02:03:15.905Z,3.218688
2018-07-13T02:03:28.321Z,1.609344
2018-07-13T02:03:40.720Z,1.609344
2018-07-13T02:03:53.188Z,1.609344
2018-07-13T02:04:05.676Z,1.609344
2018-07-13T02:04:18.082Z,1.609344
2018-07-13T02:04:30.506Z,1.609344
2018-07-13T02:04:42.928Z,3.218688
2018-07-13T02:04:55.355Z,3.218688
2018-07-13T02:05:07.787Z,1.609344
2018-07-13T02:05:20.227Z,1.609344
2018-07-13T02:05:32.636Z,1.609344
2018-07-13T02:05:45.047Z,0
2018-07-13T02:05:57.486Z,1.609344
2018-07-13T02:06:09.899Z,1.609344
2018-07-13T02:06:22.328Z,1.609344
2018-07-13T02:06:34.774Z,1.609344
2018-07-13T02:06:47.241Z,1.609344
2018-07-13T02:06:59.647Z,3.218688
2018-07-13T02:07:12.073Z,3.218688
2018-07-13T02:07:24.490Z,1.609344
2018-07-13T02:07:36.887Z,1.609344
2018-07-13T02:07:49.285Z,1.609344
2018-07-13T02:08:01.686Z,0
2018-07-13T02:08:14.117Z,3.218688
2018-07-13T02:08:26.539Z,3.218688
2018-07-13T02:08:38.948Z,3.218688
2018-07-13T02:08:51.368Z,3.218688
2018-07-13T02:09:03.794Z,4.828032
2018-07-13T02:09:16.543Z,0
2018-07-13T02:09:28.961Z,0
2018-07-13T02:09:41.380Z,1.609344
2018-07-13T02:09:53.795Z,1.609344
2018-07-13T02:10:06.193Z,1.609344
2018-07-13T02:10:18.621Z,1.609344
2018-07-13T02:10:31.017Z,6.437376
2018-07-13T02:10:43.427Z,4.828032
2018-07-13T02:10:55.879Z,1.609344
2018-07-13T02:11:08.438Z,3.218688
2018-07-13T02:11:20.849Z,1.609344
2018-07-13T02:11:33.253Z,1.609344
2018-07-13T02:11:45.674Z,1.609344
2018-07-13T02:11:58.083Z,1.609344
2018-07-13T02:12:10.501Z,1.609344
2018-07-13T02:12:22.911Z,4.828032
2018-07-13T02:12:35.338Z,3.218688
2018-07-13T02:12:47.755Z,6.437376
2018-07-13T02:13:00.257Z,3.218688
2018-07-13T02:13:12.659Z,3.218688
2018-07-13T02:13:25.212Z,3.218688
2018-07-13T02:13:37.631Z,1.609344
2018-07-13T02:13:50.036Z,3.218688
2018-07-13T02:14:02.450Z,3.218688
2018-07-13T02:14:14.866Z,3.218688
2018-07-13T02:14:27.267Z,3.218688
2018-07-13T02:14:39.705Z,1.609344
2018-07-13T02:14:52.101Z,3.218688
2018-07-13T02:15:04.523Z,1.609344
2018-07-13T02:15:16.939Z,3.218688
2018-07-13T02:15:29.344Z,1.609344
2018-07-13T02:15:41.767Z,6.437376
2018-07-13T02:15:54.185Z,6.437376
2018-07-13T02:16:06.593Z,6.437376
2018-07-13T02:16:19.006Z,6.437376
2018-07-13T02:16:31.407Z,3.218688
2018-07-13T02:16:43.828Z,6.437376
2018-07-13T02:16:56.268Z,6.437376
2018-07-13T02:17:08.683Z,3.218688
2018-07-13T02:17:21.113Z,1.609344
2018-07-13T02:17:33.577Z,1.609344
2018-07-13T02:17:45.988Z,4.828032
2018-07-13T02:17:58.666Z,6.437376
2018-07-13T02:18:11.091Z,6.437376
2018-07-13T02:18:23.642Z,3.218688
2018-07-13T02:18:36.070Z,3.218688
2018-07-13T02:18:48.494Z,3.218688
2018-07-13T02:19:00.922Z,6.437376
2018-07-13T02:19:13.468Z,4.828032
2018-07-13T02:19:25.874Z,6.437376
2018-07-13T02:19:38.276Z,6.437376
2018-07-13T02:19:50.680Z,6.437376
2018-07-13T02:20:03.085Z,6.437376
2018-07-13T02:20:15.511Z,6.437376
2018-07-13T02:20:27.944Z,6.437376
2018-07-13T02:20:40.387Z,3.218688
2018-07-13T02:20:52.802Z,3.218688
2018-07-13T02:21:05.233Z,6.437376
2018-07-13T02:21:17.697Z,4.828032
2018-07-13T02:21:30.110Z,3.218688
2018-07-13T02:21:42.532Z,3.218688
2018-07-13T02:21:54.997Z,3.218688
2018-07-13T02:22:07.434Z,1.609344
2018-07-13T02:22:19.860Z,3.218688
2018-07-13T02:22:32.284Z,3.218688
2018-07-13T02:22:44.707Z,1.609344
2018-07-13T02:22:57.136Z,1.609344
2018-07-13T02:23:09.546Z,1.609344
2018-07-13T02:23:21.961Z,1.609344
2018-07-13T02:23:34.366Z,3.218688
2018-07-13T02:23:46.792Z,1.609344
2018-07-13T02:23:59.181Z,1.609344
2018-07-13T02:24:11.626Z,1.609344
2018-07-13T02:24:24.037Z,1.609344
2018-07-13T02:24:36.437Z,4.828032
2018-07-13T02:24:48.838Z,4.828032
2018-07-13T02:25:01.249Z,3.218688
2018-07-13T02:25:13.684Z,3.218688
2018-07-13T02:25:26.094Z,1.609344
2018-07-13T02:25:38.495Z,3.218688
2018-07-13T02:25:50.942Z,6.437376
2018-07-13T02:26:03.358Z,4.828032
2018-07-13T02:26:15.761Z,3.218688
2018-07-13T02:26:28.199Z,1.609344
2018-07-13T02:26:40.620Z,1.609344
2018-07-13T02:26:53.040Z,3.218688
2018-07-13T02:27:05.471Z,3.218688
2018-07-13T02:27:18.019Z,3.218688
2018-07-13T02:27:30.436Z,8.04672
2018-07-13T02:27:42.836Z,3.218688
2018-07-13T02:27:55.263Z,3.218688
2018-07-13T02:28:07.677Z,3.218688
2018-07-13T02:28:20.254Z,1.609344